Ksmo metar

Keywords Suggestions

Ksmo metar

( Please select at least 2 keywords )

Related websites

METAR Santa Monica Municipal Airport, United States KSMO

  • METAR KSMO 141151Z AUTO 35003KT 10SM CLR 12/06 A2997 RMK AO2 SLP147 T01220056 10133 20111 53005 $
  • The wind is from direction north with a speed of 3 kt
  • The temperature and wind chill are 54 °F.

Metar-taf.com   DA: 13 PA: 5 MOZ Rank: 19

TAF of Santa Monica Municipal Airport, United States …

  • TAF KSMO 230527Z 2306/2406 VRB03KT P6SM BKN150 FM232000 23008KT P6SM BKN150 FM240200 VRB03KT P6SM SKC
  • TAF Santa Monica Municipal Airport
  • Santa Monica Municipal Airport is a small airport in Santa Monica, United States
  • The airport has one runway: 3/21
  • This report was made for Santa Monica Municipal Airport on November 22, 2021 10:30 pm

Metar-taf.com   DA: 13 PA: 9 MOZ Rank: 24

Santa Monica (KSMO) METARs missing Pilots of America

  • A few days ago, I called the KSMO Tower to ask why, but got an answering machine
  • I left a message but haven't received a response, nor have the METARs reappeared

Pilotsofamerica.com   DA: 23 PA: 50 MOZ Rank: 76

METAR TAF : Santa Monica Airport, Santa Monica California

  • TAF: KSMO 101742Z 1018/1118 00000KT 6SM HZ SKC FM102000 23007KT P6SM SKC FM110300 VRB03KT P6SM SKC FM110900 04005KT P6SM SKC
  • Weather observations and forecasts of more than 4000 airports (METAR and TAF reports)
  • The available stations are represented by yellow

En.allmetsat.com   DA: 16 PA: 34 MOZ Rank: 54

METAR of Zamperini Field, United States KTOA

  • METAR KSMO 081151Z AUTO 00000KT 5SM BR OVC004 18/17 A2988 RMK AO2 SLP118 T01830172 10194 20183 58005
  • There is little or no wind from a variable direction
  • The ceiling, broken or more, is 400 ft
  • The temperature and wind chill are 64 °F.

Metar-taf.com   DA: 13 PA: 5 MOZ Rank: 23

METAR Santa Monica Municipal Airport, United States KSMO

  • METAR Santa Monica Municipal Airport
  • Santa Monica Municipal Airport is a small airport in Santa Monica, United States
  • The airport has one runway: 3/21 (3,501 ft) Santa Monica Municipal Airport didn't publish observations recently
  • Instead, we show you the report of Van Nuys Airport which is 14 mi away
  • This report was made on July 2, 2021 1

Metar-taf.com   DA: 13 PA: 5 MOZ Rank: 24

Santa Monica Muni Airport Weather (Santa Monica, CA) [KSMO

  • Santa Monica Muni Airport (Santa Monica, CA) SMO Weather
  • Santa Monica, CA ( KSMO) Overcast skies

Flightaware.com   DA: 15 PA: 31 MOZ Rank: 53

METAR Los Angeles International Airport, United States KLAX

  • METAR KSMO 250251Z VRB04KT 10SM CLR 20/M11 A3012 RMK AO2 SLP198 T02001111 53017 $
  • There is little or no wind from a variable direction
  • The temperature and wind chill are 68 °F.

Metar-taf.com   DA: 13 PA: 5 MOZ Rank: 26

Domain Expiry Date Updated

Expiry DateExpiry DateDomain ProviderHosting Provider
Horton-parts.com2 years, 252 days leftMarkMonitor Inc.Abacus Solutions, LLC
Thrivecoupon.com 314 days leftNameCheap, Inc.The Constant Company, LLC
Blogspot.com 241 days leftMarkMonitor Inc.Google LLC
Eguruchela.com 339 days leftPDR Ltd. d/b/a PublicDomainRegistry.comPlot No. 906, A 404, Karmaa Residency, Wasan Nagar
Fortnerins.com 133 days leftGoDaddy.com, LLCSquarespace, Inc.
Treasurystrategies.com3 years, 336 days leftNetwork Solutions, LLCAmazon Technologies Inc.
Gaffneyonthego.com1 year, 256 days leftGoDaddy.com, LLCLiquid Web, L.L.C
Homegamez.com 336 days leftGoDaddy.com, LLCCloudflare, Inc.
Optonline.net 307 days leftGoDaddy.com, LLCCablevision Systems Corp.
Crosspointcape.com1 year, 181 days lefteNom, LLCAmazon Technologies Inc.

<< See All >>

.COM - 10,595,200+   .ORG - 1,117,549+   .EDU - 123,500+   .NET - 792,945+   .GOV - 30,232+   .US - 84,439+   .CA - 122,904+   .DE - 220,061+   .UK - 272,390+   .IT - 108,882+   .AU - 152,812+   .CO - 51,739+   .BIZ - 59,081+   .IO - 32,494+   .NL - 99,647+   .SG - 19,713+   .INFO - 81,589+   .IE - 26,934+   .ME - 25,076+   .FR - 98,576+   .EU - 61,372+   .RU - 165,043+   .PH - 9,511+   .INT - 1,166+   .IN - 87,021+   .ES - 38,035+   .CZ - 71,869+   .VN - 48,920+   .TV - 14,250+   .SITE - 9,829+   .RO - 37,484+   .PL - 44,520+   .PK - 10,373+   .MOBI - 4,464+   .LK - 5,507+   .CN - 66,137+   .CH - 66,914+   .AT - 31,992+  

Email Address Search | IP Address Blacklist Check | Hosting Providers | Domain Providers | Website Error Checker

© 2018 Site-Stats.org. All rights reserved. Email: [email protected]